Time;durP1;ratioP1;P1;durP2;ratioP2;P2;SDS_P1;SDS_P2;PMS_P1;PMS_P2;Temp;Humidity;BMP_temperature;BMP_pressure;BME280_temperature;BME280_humidity;BME280_pressure;Samples;Min_cycle;Max_cycle;Signal;HPM_P1;HPM_P2
2023/12/29 00:01:56;;;;;;;21.65;3.38;;;8.30;99.90;;;;;;5049921;28;20592;-88
2023/12/29 00:04:22;;;;;;;21.15;3.17;;;8.30;99.90;;;;;;5068508;28;20059;-86
2023/12/29 00:06:49;;;;;;;24.25;4.00;;;8.30;99.90;;;;;;5066759;28;20070;-87
2023/12/29 00:09:15;;;;;;;16.90;2.70;;;8.40;99.90;;;;;;5050500;28;20045;-85
2023/12/29 00:11:40;;;;;;;14.38;3.50;;;8.40;99.90;;;;;;5083228;28;20160;-86
2023/12/29 00:14:06;;;;;;;17.92;2.58;;;7.20;99.90;;;;;;5050159;28;20037;-88
2023/12/29 00:16:32;;;;;;;13.10;2.67;;;8.50;99.90;;;;;;5083328;28;20040;-88
2023/12/29 00:19:00;;;;;;;17.92;3.00;;;8.60;99.90;;;;;;5048875;28;20040;-84
2023/12/29 00:21:26;;;;;;;24.80;3.70;;;8.60;99.90;;;;;;5065323;28;20051;-85
2023/12/29 00:23:52;;;;;;;17.50;2.28;;;8.60;99.90;;;;;;5065447;28;20048;-86
2023/12/29 00:26:21;;;;;;;16.33;2.17;;;8.70;99.90;;;;;;5049029;28;20051;-83
2023/12/29 00:28:47;;;;;;;13.85;2.33;;;8.60;99.90;;;;;;5048482;28;20040;-85
2023/12/29 00:31:16;;;;;;;15.80;3.03;;;8.60;99.90;;;;;;5065503;28;20052;-84
2023/12/29 00:33:43;;;;;;;19.50;2.15;;;8.60;99.90;;;;;;5048241;28;20048;-84
2023/12/29 00:36:14;;;;;;;12.80;3.20;;;8.60;99.90;;;;;;5065228;28;20052;-86
2023/12/29 00:38:39;;;;;;;14.52;1.95;;;8.60;99.90;;;;;;5082924;28;20532;-86
2023/12/29 00:41:05;;;;;;;14.05;1.58;;;8.70;99.90;;;;;;5049853;28;20044;-85
2023/12/29 00:43:31;;;;;;;13.85;2.17;;;8.70;99.90;;;;;;5049988;28;20045;-84
2023/12/29 00:46:10;;;;;;;10.20;1.50;;;8.80;99.90;;;;;;5070914;28;20033;-84
2023/12/29 00:48:35;;;;;;;16.15;2.15;;;8.80;99.90;;;;;;5058112;28;20052;-84
2023/12/29 00:51:02;;;;;;;15.73;2.28;;;8.80;99.90;;;;;;5060228;28;20040;-85
2023/12/29 00:53:29;;;;;;;13.38;1.75;;;8.80;99.90;;;;;;5077968;28;20094;-84
2023/12/29 00:55:55;;;;;;;9.40;1.30;;;8.80;99.90;;;;;;5109516;28;20875;-87
2023/12/29 00:58:20;;;;;;;15.10;1.73;;;8.70;99.90;;;;;;5061616;28;20064;-82
2023/12/29 01:00:48;;;;;;;14.10;2.15;;;8.70;99.90;;;;;;5053494;28;20040;-84
2023/12/29 01:03:14;;;;;;;16.50;3.35;;;8.80;99.90;;;;;;5066453;28;20746;-84
2023/12/29 01:05:40;;;;;;;15.75;2.80;;;8.70;99.90;;;;;;5050147;28;20123;-86
2023/12/29 01:08:06;;;;;;;15.20;2.20;;;8.60;99.90;;;;;;5066137;28;20528;-84
2023/12/29 01:10:32;;;;;;;11.25;2.15;;;8.60;99.90;;;;;;5049091;28;20179;-85
2023/12/29 01:12:58;;;;;;;21.92;3.00;;;8.60;99.90;;;;;;5065717;28;20045;-85
2023/12/29 01:15:23;;;;;;;21.48;3.05;;;8.60;99.90;;;;;;5065164;28;20040;-84
2023/12/29 01:17:49;;;;;;;21.60;3.67;;;8.50;99.90;;;;;;5049796;28;20062;-85
2023/12/29 01:20:15;;;;;;;16.50;3.03;;;8.50;99.90;;;;;;5048460;28;20440;-82
2023/12/29 01:22:41;;;;;;;18.75;3.88;;;8.50;99.90;;;;;;5064405;28;20082;-86
2023/12/29 01:25:07;;;;;;;22.02;3.72;;;8.50;99.90;;;;;;5063377;28;20051;-88
2023/12/29 01:27:33;;;;;;;20.83;3.85;;;8.50;99.90;;;;;;5063155;28;20501;-84
2023/12/29 01:29:59;;;;;;;14.90;3.83;;;8.50;99.90;;;;;;5064648;28;20082;-86
2023/12/29 01:32:26;;;;;;;25.52;3.90;;;8.50;99.90;;;;;;5080516;28;20478;-84
2023/12/29 01:34:54;;;;;;;16.33;3.78;;;8.50;99.90;;;;;;5062981;28;20040;-85
2023/12/29 01:37:20;;;;;;;24.88;4.65;;;8.50;99.90;;;;;;5046596;28;20474;-86
2023/12/29 01:39:46;;;;;;;15.88;2.95;;;8.50;99.90;;;;;;5064587;28;20075;-85
2023/12/29 01:42:12;;;;;;;21.33;4.28;;;8.50;99.90;;;;;;5081277;28;20045;-84
2023/12/29 01:44:38;;;;;;;19.25;3.00;;;8.50;99.90;;;;;;5045936;28;20044;-87
2023/12/29 01:47:11;;;;;;;25.58;4.15;;;8.50;99.90;;;;;;5046420;28;20075;-85
2023/12/29 01:49:38;;;;;;;31.00;5.28;;;8.50;99.90;;;;;;5046413;28;20110;-85
2023/12/29 01:52:05;;;;;;;18.17;4.25;;;8.50;99.90;;;;;;5063025;28;20032;-83
2023/12/29 01:54:34;;;;;;;25.95;3.58;;;8.50;99.90;;;;;;5064080;28;20213;-88
2023/12/29 01:57:02;;;;;;;18.20;5.15;;;8.50;99.90;;;;;;5046604;28;20045;-82
2023/12/29 01:59:28;;;;;;;22.08;4.65;;;8.50;99.90;;;;;;5080170;28;20044;-85
2023/12/29 02:01:58;;;;;;;19.73;5.43;;;8.50;99.90;;;;;;5046834;28;20127;-88
2023/12/29 02:04:25;;;;;;;18.38;4.25;;;8.60;99.90;;;;;;5064128;28;20378;-89
2023/12/29 02:06:51;;;;;;;19.30;4.10;;;8.60;99.90;;;;;;5047417;28;20493;-87
2023/12/29 02:09:18;;;;;;;25.70;5.25;;;8.60;99.90;;;;;;5081325;28;20582;-85
2023/12/29 02:11:45;;;;;;;24.00;4.47;;;8.50;99.90;;;;;;5081110;28;20417;-84
2023/12/29 02:14:11;;;;;;;11.30;2.58;;;8.50;99.90;;;;;;5081410;28;20040;-89
2023/12/29 02:16:37;;;;;;;24.70;3.40;;;8.50;99.90;;;;;;5098137;28;20474;-84
2023/12/29 02:19:13;;;;;;;23.67;5.05;;;8.50;99.90;;;;;;5046829;28;20072;-88
2023/12/29 02:21:39;;;;;;;27.65;5.07;;;8.50;99.90;;;;;;5046116;28;20521;-88
2023/12/29 02:24:05;;;;;;;21.73;4.97;;;8.50;99.90;;;;;;5064473;28;20054;-85
2023/12/29 02:26:34;;;;;;;29.98;6.25;;;8.50;99.90;;;;;;5062701;28;20106;-86
2023/12/29 02:29:06;;;;;;;23.45;6.22;;;8.50;99.90;;;;;;5045720;28;20120;-86
2023/12/29 02:31:38;;;;;;;18.48;4.40;;;8.50;99.90;;;;;;5046581;28;20044;-87
2023/12/29 02:34:07;;;;;;;28.52;7.13;;;8.50;99.90;;;;;;5046889;28;20040;-84
2023/12/29 02:36:34;;;;;;;26.92;5.70;;;9.50;99.90;;;;;;5062991;28;20036;-83
2023/12/29 02:39:00;;;;;;;25.63;6.28;;;8.50;99.90;;;;;;5063348;28;20041;-86
2023/12/29 02:41:26;;;;;;;27.52;5.00;;;8.50;99.90;;;;;;5045729;28;20500;-86
2023/12/29 02:43:52;;;;;;;28.33;5.07;;;8.50;99.90;;;;;;5079875;28;20044;-84
2023/12/29 02:46:17;;;;;;;27.58;8.55;;;8.50;99.90;;;;;;5063268;28;20094;-85
2023/12/29 02:48:43;;;;;;;14.05;4.38;;;8.50;99.90;;;;;;5078789;28;20048;-84
2023/12/29 02:51:09;;;;;;;23.42;5.93;;;8.50;99.90;;;;;;5079015;28;20044;-84
2023/12/29 02:53:35;;;;;;;24.58;6.15;;;8.50;99.90;;;;;;5045553;28;20152;-87
2023/12/29 02:56:01;;;;;;;23.38;5.50;;;8.50;99.90;;;;;;5062925;28;20075;-84
2023/12/29 02:58:26;;;;;;;24.98;5.38;;;8.50;99.90;;;;;;5045370;28;20048;-85
2023/12/29 03:00:53;;;;;;;21.20;3.53;;;8.50;99.90;;;;;;5062841;28;20044;-84
2023/12/29 03:03:19;;;;;;;8.38;2.10;;;8.50;99.90;;;;;;5062783;28;20071;-85
2023/12/29 03:05:44;;;;;;;13.45;2.00;;;8.40;99.90;;;;;;5046496;28;20040;-84
2023/12/29 03:08:10;;;;;;;15.18;2.83;;;8.40;99.90;;;;;;5079946;28;20044;-84
2023/12/29 03:10:36;;;;;;;12.82;3.03;;;8.30;99.90;;;;;;5045054;28;20983;-88
2023/12/29 03:13:04;;;;;;;11.25;2.05;;;8.20;99.90;;;;;;5061832;28;20067;-89
2023/12/29 03:15:29;;;;;;;17.90;2.92;;;8.20;99.90;;;;;;5062413;28;20045;-85
2023/12/29 03:17:55;;;;;;;11.55;1.98;;;8.20;99.90;;;;;;5045917;28;20041;-84
2023/12/29 03:20:21;;;;;;;31.60;6.20;;;8.20;99.90;;;;;;5062476;28;20063;-85
2023/12/29 03:22:47;;;;;;;16.77;4.18;;;8.20;99.90;;;;;;5046318;28;20044;-85
2023/12/29 03:25:12;;;;;;;22.60;3.22;;;8.20;99.90;;;;;;5045868;28;20079;-86
2023/12/29 03:27:38;;;;;;;19.70;3.00;;;8.20;99.90;;;;;;5044898;28;20243;-85
2023/12/29 03:30:05;;;;;;;28.63;4.03;;;8.20;99.90;;;;;;5045200;28;20838;-84
2023/12/29 03:32:30;;;;;;;19.38;4.78;;;8.10;99.90;;;;;;5045409;28;20362;-86
2023/12/29 03:34:56;;;;;;;32.90;4.28;;;8.10;99.90;;;;;;5047769;28;20045;-86
2023/12/29 03:37:22;;;;;;;21.52;4.13;;;8.10;99.90;;;;;;5048939;28;20045;-86
2023/12/29 03:39:48;;;;;;;30.83;4.88;;;8.20;99.90;;;;;;5049762;28;20036;-85
2023/12/29 03:42:14;;;;;;;31.10;5.10;;;7.70;99.90;;;;;;5067477;28;20060;-86
2023/12/29 03:44:40;;;;;;;26.25;5.70;;;8.20;99.90;;;;;;5082574;28;20047;-87
2023/12/29 03:47:05;;;;;;;31.90;5.25;;;8.20;99.90;;;;;;5049379;28;20088;-90
2023/12/29 03:49:31;;;;;;;40.30;6.07;;;8.20;99.90;;;;;;5048753;28;20044;-82
2023/12/29 03:51:57;;;;;;;32.53;5.78;;;8.20;99.90;;;;;;5045094;28;20041;-85
2023/12/29 03:54:23;;;;;;;23.75;5.13;;;8.20;99.90;;;;;;5062772;28;20083;-86
2023/12/29 03:56:48;;;;;;;20.85;5.20;;;8.20;99.90;;;;;;5048641;28;20810;-84
2023/12/29 03:59:14;;;;;;;25.55;5.45;;;8.20;99.90;;;;;;5065392;28;20524;-85
2023/12/29 04:01:40;;;;;;;22.45;4.05;;;8.30;99.90;;;;;;5048789;28;20106;-86
2023/12/29 04:04:06;;;;;;;19.17;3.03;;;8.20;99.90;;;;;;5065925;28;20044;-82
2023/12/29 04:06:32;;;;;;;20.20;3.72;;;8.20;99.90;;;;;;5065825;28;20045;-86
2023/12/29 04:08:58;;;;;;;21.52;3.75;;;8.10;99.90;;;;;;5066147;28;20040;-87
2023/12/29 04:11:23;;;;;;;22.92;4.15;;;8.00;99.90;;;;;;5065406;28;20498;-86
2023/12/29 04:13:49;;;;;;;23.15;5.55;;;8.00;99.90;;;;;;5065291;28;20037;-85
2023/12/29 04:16:15;;;;;;;19.23;4.15;;;8.00;99.90;;;;;;5048833;28;20048;-85
2023/12/29 04:18:41;;;;;;;27.65;4.00;;;8.00;99.90;;;;;;5066299;28;20044;-88
2023/12/29 04:21:09;;;;;;;24.75;5.57;;;8.10;99.90;;;;;;5049594;28;20040;-86
2023/12/29 04:23:34;;;;;;;34.78;5.82;;;8.00;99.90;;;;;;5049276;28;20040;-85
2023/12/29 04:26:00;;;;;;;33.08;7.35;;;8.00;99.90;;;;;;5051158;28;20032;-86
2023/12/29 04:28:26;;;;;;;28.17;5.75;;;7.90;99.90;;;;;;5049832;28;20046;-86
2023/12/29 04:30:52;;;;;;;24.38;5.50;;;7.90;99.90;;;;;;5066083;28;20044;-87
2023/12/29 04:33:18;;;;;;;41.13;8.30;;;7.80;99.90;;;;;;5065460;28;20117;-87
2023/12/29 04:35:43;;;;;;;22.65;5.50;;;7.80;99.90;;;;;;5048462;28;20131;-86
2023/12/29 04:38:10;;;;;;;29.00;6.25;;;7.90;99.90;;;;;;5065009;28;20741;-85
2023/12/29 04:40:36;;;;;;;33.83;6.18;;;7.80;99.90;;;;;;5047697;28;20045;-87
2023/12/29 04:43:02;;;;;;;27.48;5.40;;;7.80;99.90;;;;;;5064795;28;20045;-88
2023/12/29 04:45:28;;;;;;;31.17;4.70;;;8.00;99.90;;;;;;5047500;28;20048;-85
2023/12/29 04:47:54;;;;;;;31.05;6.43;;;7.80;99.90;;;;;;5064361;28;20502;-89
2023/12/29 04:50:20;;;;;;;25.17;5.03;;;7.80;99.90;;;;;;5047206;28;20052;-87
2023/12/29 04:52:46;;;;;;;43.33;6.43;;;7.80;99.90;;;;;;5064595;28;20040;-86
2023/12/29 04:55:12;;;;;;;34.55;6.90;;;7.80;99.90;;;;;;5048268;28;20041;-83
2023/12/29 04:57:38;;;;;;;36.70;5.28;;;7.70;99.90;;;;;;5064137;28;20500;-84
2023/12/29 05:00:05;;;;;;;31.45;5.13;;;7.80;99.90;;;;;;5065274;28;20051;-87
2023/12/29 05:02:30;;;;;;;27.70;4.45;;;7.70;99.90;;;;;;5048739;28;20914;-85
2023/12/29 05:04:56;;;;;;;25.63;5.95;;;7.70;99.90;;;;;;5101505;28;20040;-86
2023/12/29 05:07:24;;;;;;;49.33;8.02;;;7.60;99.90;;;;;;5071196;28;20052;-87
2023/12/29 05:09:49;;;;;;;41.10;5.18;;;7.70;99.90;;;;;;5056881;28;20049;-85
2023/12/29 05:12:16;;;;;;;29.33;3.78;;;7.70;99.90;;;;;;5073286;28;20055;-86
2023/12/29 05:14:42;;;;;;;30.17;3.75;;;7.70;99.90;;;;;;5091395;28;20064;-85
2023/12/29 05:17:08;;;;;;;33.05;3.80;;;7.80;99.90;;;;;;5057637;28;20047;-85
2023/12/29 05:19:34;;;;;;;31.35;3.53;;;7.20;99.90;;;;;;5083327;28;20040;-85
2023/12/29 05:22:00;;;;;;;26.90;4.32;;;7.70;99.90;;;;;;5052479;28;20555;-86
2023/12/29 05:24:25;;;;;;;39.20;6.78;;;7.70;99.90;;;;;;5049094;28;20089;-88
2023/12/29 05:26:51;;;;;;;27.92;4.65;;;7.80;99.90;;;;;;5064054;28;20385;-88
2023/12/29 05:29:17;;;;;;;25.88;5.47;;;7.80;99.90;;;;;;5048889;28;20091;-88
2023/12/29 05:31:43;;;;;;;38.83;3.55;;;7.80;99.90;;;;;;5049569;28;20090;-86
2023/12/29 05:34:08;;;;;;;27.23;4.32;;;7.70;99.90;;;;;;5066733;28;20040;-86
2023/12/29 05:36:38;;;;;;;30.83;4.22;;;8.40;99.90;;;;;;5098641;28;20127;-86
2023/12/29 05:39:05;;;;;;;30.20;3.38;;;7.70;99.90;;;;;;5053436;28;20033;-88
2023/12/29 05:41:31;;;;;;;29.10;4.68;;;7.70;99.90;;;;;;5058412;28;20616;-86
2023/12/29 05:44:00;;;;;;;28.10;4.53;;;7.60;99.90;;;;;;5052308;28;20048;-86
2023/12/29 05:46:26;;;;;;;24.65;2.67;;;7.60;99.90;;;;;;5046156;28;20572;-85
2023/12/29 05:48:53;;;;;;;28.65;3.15;;;7.60;99.90;;;;;;5079558;28;20143;-86
2023/12/29 05:51:19;;;;;;;29.58;3.90;;;7.60;99.90;;;;;;5046475;28;20127;-86
2023/12/29 05:53:44;;;;;;;29.33;2.67;;;7.60;99.90;;;;;;5063617;28;20051;-86
2023/12/29 05:56:14;;;;;;;31.67;3.22;;;7.60;99.90;;;;;;5062284;28;20036;-86
2023/12/29 05:58:43;;;;;;;34.60;5.07;;;7.50;99.90;;;;;;5079839;28;20044;-89
2023/12/29 06:01:10;;;;;;;28.08;2.97;;;7.50;99.90;;;;;;5045840;28;20438;-88
2023/12/29 06:03:36;;;;;;;27.85;3.10;;;7.50;99.90;;;;;;5045136;28;20037;-90
2023/12/29 06:06:02;;;;;;;25.52;2.95;;;7.50;99.90;;;;;;5072564;28;20081;-84
2023/12/29 06:08:28;;;;;;;22.25;3.28;;;7.50;99.90;;;;;;5061860;28;20040;-86
2023/12/29 06:10:54;;;;;;;25.65;3.63;;;7.40;99.90;;;;;;5045440;28;20047;-85
2023/12/29 06:13:20;;;;;;;20.98;3.90;;;7.50;99.90;;;;;;5062113;28;20045;-86
2023/12/29 06:15:46;;;;;;;34.45;3.53;;;7.60;99.90;;;;;;5045146;28;20074;-87
2023/12/29 06:18:11;;;;;;;31.73;4.13;;;7.40;99.90;;;;;;5045127;28;20051;-88
2023/12/29 06:20:37;;;;;;;24.70;3.97;;;7.40;99.90;;;;;;5061419;28;20040;-84
2023/12/29 06:23:03;;;;;;;29.10;2.80;;;7.40;99.90;;;;;;5045035;28;20460;-88
2023/12/29 06:25:29;;;;;;;24.90;2.95;;;7.30;99.90;;;;;;5045257;28;20047;-85
2023/12/29 06:27:55;;;;;;;26.55;3.13;;;7.40;99.90;;;;;;5045096;28;20098;-85
2023/12/29 06:30:21;;;;;;;28.80;3.53;;;7.40;99.90;;;;;;5061286;28;20136;-89
2023/12/29 06:32:47;;;;;;;31.30;3.53;;;7.50;99.90;;;;;;5044596;28;20051;-84
2023/12/29 06:35:13;;;;;;;34.10;4.00;;;7.60;99.90;;;;;;5045067;28;20041;-86
2023/12/29 06:37:40;;;;;;;29.40;3.25;;;7.60;99.90;;;;;;5062673;28;20481;-86
2023/12/29 06:40:09;;;;;;;34.95;4.68;;;7.60;99.90;;;;;;5046141;28;20438;-87
2023/12/29 06:42:35;;;;;;;31.30;4.30;;;7.70;99.90;;;;;;5046898;28;20049;-86
2023/12/29 06:45:01;;;;;;;37.67;5.78;;;7.80;99.90;;;;;;5046127;28;20050;-87
2023/12/29 06:47:27;;;;;;;35.53;3.90;;;7.80;99.90;;;;;;5044715;28;20614;-88
2023/12/29 06:49:53;;;;;;;34.97;4.45;;;7.80;99.90;;;;;;5061573;28;20044;-85
2023/12/29 06:52:19;;;;;;;31.05;3.53;;;7.90;99.90;;;;;;5060614;28;20049;-88
2023/12/29 06:54:47;;;;;;;30.73;3.97;;;7.90;99.90;;;;;;5044082;28;20040;-86
2023/12/29 06:57:15;;;;;;;41.25;4.55;;;7.90;99.90;;;;;;5044198;28;20715;-84
2023/12/29 06:59:41;;;;;;;45.67;4.25;;;8.00;99.90;;;;;;5043852;28;20044;-87
2023/12/29 07:02:07;;;;;;;44.58;5.25;;;8.00;99.90;;;;;;5054727;28;20050;-85
2023/12/29 07:04:33;;;;;;;38.70;6.18;;;8.00;99.90;;;;;;5044870;28;20771;-86
2023/12/29 07:07:01;;;;;;;37.08;5.80;;;8.00;99.90;;;;;;5061425;28;20055;-87
2023/12/29 07:09:26;;;;;;;31.13;4.03;;;8.00;99.90;;;;;;5065981;28;20105;-87
2023/12/29 07:11:55;;;;;;;38.15;6.43;;;8.00;99.90;;;;;;5065465;28;20041;-86
2023/12/29 07:14:21;;;;;;;39.90;6.20;;;8.00;99.90;;;;;;5066125;28;20040;-86
2023/12/29 07:16:47;;;;;;;42.53;6.13;;;8.00;99.90;;;;;;5067420;28;20043;-85
2023/12/29 07:19:13;;;;;;;42.13;6.28;;;8.00;99.90;;;;;;5077665;28;20046;-88
2023/12/29 07:21:38;;;;;;;36.03;4.57;;;8.00;99.90;;;;;;5098289;28;20078;-87
2023/12/29 07:24:05;;;;;;;37.92;5.93;;;8.00;99.90;;;;;;5055542;28;20090;-88
2023/12/29 07:26:34;;;;;;;47.30;4.85;;;8.00;99.90;;;;;;5050611;28;20862;-89
2023/12/29 07:28:59;;;;;;;47.58;7.72;;;8.00;99.90;;;;;;5047907;28;20040;-88
2023/12/29 07:31:25;;;;;;;42.70;4.25;;;7.10;99.90;;;;;;5081191;28;20074;-86
2023/12/29 07:33:51;;;;;;;39.13;4.53;;;8.30;99.90;;;;;;5081566;28;20052;-87
2023/12/29 07:36:17;;;;;;;41.67;3.67;;;8.00;99.90;;;;;;5048320;28;20164;-90
2023/12/29 07:38:42;;;;;;;41.60;5.90;;;8.00;99.90;;;;;;5047891;28;20047;-87
2023/12/29 07:41:09;;;;;;;35.40;5.10;;;8.00;99.90;;;;;;5049096;28;20037;-86
2023/12/29 07:43:38;;;;;;;45.70;6.45;;;7.90;99.90;;;;;;5047786;28;20493;-87
2023/12/29 07:46:04;;;;;;;42.70;6.57;;;8.00;99.90;;;;;;5048730;28;20126;-90
2023/12/29 07:48:30;;;;;;;27.10;4.57;;;7.90;99.90;;;;;;5048157;28;20045;-85
2023/12/29 07:51:03;;;;;;;32.42;3.75;;;7.90;99.90;;;;;;5064099;28;20164;-85
2023/12/29 07:53:29;;;;;;;33.78;4.13;;;7.90;99.90;;;;;;5097966;28;20087;-86
2023/12/29 07:55:54;;;;;;;34.33;4.15;;;7.80;99.90;;;;;;5064263;28;20119;-88
2023/12/29 07:58:20;;;;;;;36.25;3.75;;;7.80;99.90;;;;;;5098884;28;20572;-86
2023/12/29 08:00:46;;;;;;;35.22;4.22;;;7.70;99.90;;;;;;5065528;28;20056;-87
2023/12/29 08:03:12;;;;;;;47.80;4.25;;;7.70;99.90;;;;;;5049035;28;20048;-87
2023/12/29 08:05:38;;;;;;;52.90;8.43;;;7.70;99.90;;;;;;5050350;28;20063;-84
2023/12/29 08:08:04;;;;;;;40.65;5.18;;;7.70;99.90;;;;;;5049274;28;20074;-85
2023/12/29 08:10:31;;;;;;;48.47;6.60;;;7.60;99.90;;;;;;5047146;28;20119;-86
2023/12/29 08:12:57;;;;;;;47.45;5.32;;;7.60;99.90;;;;;;5081771;28;20710;-86
2023/12/29 08:15:23;;;;;;;39.13;4.55;;;7.60;99.90;;;;;;5065456;28;20053;-86
2023/12/29 08:17:49;;;;;;;45.33;4.78;;;7.70;99.90;;;;;;5064686;28;20041;-88
2023/12/29 08:20:15;;;;;;;45.88;5.32;;;7.70;99.90;;;;;;5080315;28;20085;-87
2023/12/29 08:22:42;;;;;;;44.42;7.47;;;7.80;99.90;;;;;;5048128;28;20076;-84
2023/12/29 08:25:08;;;;;;;36.85;4.50;;;7.90;99.90;;;;;;5047738;28;20048;-86
2023/12/29 08:27:34;;;;;;;36.13;6.45;;;7.90;99.90;;;;;;5063546;28;20483;-84
2023/12/29 08:30:00;;;;;;;49.80;6.43;;;7.90;99.90;;;;;;5063123;28;20071;-83
2023/12/29 08:32:25;;;;;;;39.72;4.70;;;7.90;99.90;;;;;;5047069;28;20238;-84
2023/12/29 08:34:51;;;;;;;33.17;3.65;;;8.00;99.90;;;;;;5047469;28;20048;-87
2023/12/29 08:37:19;;;;;;;34.60;5.22;;;8.00;99.90;;;;;;5080570;28;20127;-86
2023/12/29 08:39:48;;;;;;;27.38;3.70;;;8.00;99.90;;;;;;5080743;28;20048;-87
2023/12/29 08:42:15;;;;;;;34.42;5.78;;;8.00;99.90;;;;;;5047193;28;20147;-87
2023/12/29 08:44:41;;;;;;;38.30;4.38;;;5.30;99.90;;;;;;5080375;28;20044;-86
2023/12/29 08:47:08;;;;;;;41.15;5.90;;;8.10;99.90;;;;;;5081149;28;20044;-84
2023/12/29 08:49:37;;;;;;;33.72;5.53;;;8.10;99.90;;;;;;5063899;28;20136;-88
2023/12/29 08:52:04;;;;;;;41.15;4.32;;;8.10;99.90;;;;;;5046073;28;20632;-84
2023/12/29 08:54:29;;;;;;;36.63;6.18;;;8.10;99.90;;;;;;5062956;28;20051;-85
2023/12/29 08:56:55;;;;;;;44.13;5.03;;;5.40;99.90;;;;;;5062732;28;20040;-86
2023/12/29 08:59:21;;;;;;;37.78;5.47;;;8.10;99.90;;;;;;5046977;28;20098;-86
2023/12/29 09:01:47;;;;;;;44.33;5.90;;;8.10;99.90;;;;;;5063272;28;20076;-85
2023/12/29 09:04:13;;;;;;;48.67;7.07;;;8.10;99.90;;;;;;5063794;28;20133;-85
2023/12/29 09:06:39;;;;;;;38.30;5.25;;;8.10;99.90;;;;;;5063513;28;20512;-84
2023/12/29 09:09:04;;;;;;;31.70;4.50;;;8.10;99.90;;;;;;5047785;28;20137;-86
2023/12/29 09:11:30;;;;;;;49.13;5.50;;;8.10;99.90;;;;;;5081362;28;20048;-87
2023/12/29 09:13:56;;;;;;;48.78;4.90;;;8.10;99.90;;;;;;5046577;28;20043;-85
2023/12/29 09:16:22;;;;;;;42.50;6.30;;;8.10;99.90;;;;;;5063875;28;20045;-86
2023/12/29 09:18:48;;;;;;;29.92;4.22;;;8.10;99.90;;;;;;5047731;28;20096;-84
2023/12/29 09:21:14;;;;;;;23.52;3.40;;;8.10;99.90;;;;;;5057115;28;20043;-85
2023/12/29 09:23:40;;;;;;;25.33;2.63;;;8.10;99.90;;;;;;5057692;28;20044;-86
2023/12/29 09:26:06;;;;;;;21.73;2.50;;;8.00;99.90;;;;;;5057031;28;20044;-85
2023/12/29 09:28:33;;;;;;;37.92;4.97;;;7.90;99.90;;;;;;5055494;28;20047;-85
2023/12/29 09:31:00;;;;;;;33.08;4.43;;;7.90;99.90;;;;;;5046855;28;20482;-88
2023/12/29 09:33:26;;;;;;;29.00;2.50;;;7.80;99.90;;;;;;5098823;28;20131;-87
2023/12/29 09:35:52;;;;;;;28.60;3.95;;;7.80;99.90;;;;;;5065291;28;20043;-87
2023/12/29 09:38:19;;;;;;;27.10;4.88;;;7.80;99.90;;;;;;5041830;28;20040;-88
2023/12/29 09:40:47;;;;;;;39.38;5.88;;;7.80;99.90;;;;;;5080266;28;20043;-87
2023/12/29 09:43:13;;;;;;;30.20;4.68;;;7.80;99.90;;;;;;5061695;28;20044;-87
2023/12/29 09:45:40;;;;;;;29.65;4.65;;;7.90;99.90;;;;;;5044428;28;20058;-84
2023/12/29 09:48:13;;;;;;;27.75;5.10;;;8.00;99.90;;;;;;5046565;28;20510;-87
2023/12/29 09:50:39;;;;;;;36.83;7.50;;;8.00;99.90;;;;;;5058901;28;20052;-84
2023/12/29 09:53:06;;;;;;;30.10;4.97;;;8.00;99.90;;;;;;5046172;28;20563;-82
2023/12/29 09:55:34;;;;;;;33.60;4.45;;;8.00;99.90;;;;;;5033918;28;20040;-85
2023/12/29 09:58:00;;;;;;;29.65;4.78;;;8.00;99.90;;;;;;5062458;28;20432;-84
2023/12/29 10:00:27;;;;;;;27.08;3.83;;;8.10;99.90;;;;;;5046494;28;20037;-85
2023/12/29 10:02:54;;;;;;;31.70;4.78;;;8.10;99.90;;;;;;5045088;28;20234;-87
2023/12/29 10:05:19;;;;;;;31.65;4.80;;;8.10;99.90;;;;;;5043475;28;20049;-83
2023/12/29 10:07:47;;;;;;;34.05;4.75;;;8.10;99.90;;;;;;5045569;28;20105;-83
2023/12/29 10:10:18;;;;;;;33.25;4.18;;;8.10;99.90;;;;;;5045011;28;20124;-86
2023/12/29 10:12:47;;;;;;;36.30;4.53;;;8.10;99.90;;;;;;5095036;28;20099;-86
2023/12/29 10:15:37;;;;;;;30.55;4.70;;;6.00;99.90;;;;;;5046075;28;20523;-85
2023/12/29 10:18:09;;;;;;;26.90;4.10;;;8.20;99.90;;;;;;5041036;28;20037;-89
2023/12/29 10:20:45;;;;;;;;;;;8.20;99.90;;;;;;5042118;28;20044;-85
2023/12/29 10:23:16;;;;;;;30.08;3.88;;;8.50;99.90;;;;;;5095437;28;19924;-84
2023/12/29 10:25:43;;;;;;;29.38;4.03;;;8.30;99.90;;;;;;5075716;28;20043;-88
2023/12/29 10:28:13;;;;;;;28.02;4.57;;;8.30;99.90;;;;;;5046113;28;20044;-84
2023/12/29 10:30:40;;;;;;;24.60;3.17;;;8.30;99.90;;;;;;5046324;28;20044;-86
2023/12/29 10:33:05;;;;;;;19.05;4.25;;;8.30;99.90;;;;;;5045067;28;20044;-86
2023/12/29 10:35:34;;;;;;;35.40;4.57;;;8.30;99.90;;;;;;5061793;28;20041;-86
2023/12/29 10:38:11;;;;;;;28.05;3.85;;;8.30;99.90;;;;;;5044631;28;20037;-86
2023/12/29 10:40:36;;;;;;;38.67;6.85;;;8.30;99.90;;;;;;5055947;28;20395;-84
2023/12/29 10:43:07;;;;;;;34.22;5.20;;;8.30;99.90;;;;;;5044919;28;20044;-82
2023/12/29 10:45:34;;;;;;;23.77;3.63;;;8.30;99.90;;;;;;5076467;28;20259;-85
2023/12/29 10:48:00;;;;;;;24.55;3.78;;;8.40;99.90;;;;;;5061195;28;20494;-86
2023/12/29 10:50:27;;;;;;;32.58;3.65;;;8.50;99.90;;;;;;5061409;28;20105;-85
2023/12/29 10:53:14;;;;;;;27.02;4.07;;;8.50;99.90;;;;;;5063831;28;20056;-87
2023/12/29 10:55:40;;;;;;;42.28;5.38;;;8.50;99.90;;;;;;5040166;28;20087;-83
2023/12/29 10:58:06;;;;;;;24.17;4.65;;;8.50;99.90;;;;;;5060046;28;20120;-83
2023/12/29 11:00:32;;;;;;;23.17;2.90;;;9.70;99.90;;;;;;5040673;28;20175;-84
2023/12/29 11:02:59;;;;;;;25.50;3.22;;;8.50;99.90;;;;;;5060176;28;20520;-86
2023/12/29 11:05:44;;;;;;;30.05;4.40;;;8.50;99.90;;;;;;5042068;28;20055;-86
2023/12/29 11:08:20;;;;;;;25.73;3.00;;;8.50;99.90;;;;;;5025232;28;20056;-86
2023/12/29 11:10:48;;;;;;;24.65;2.95;;;8.50;99.90;;;;;;5041637;28;20056;-86
2023/12/29 11:13:15;;;;;;;22.10;3.17;;;8.50;99.90;;;;;;5043002;28;20040;-86
2023/12/29 11:15:47;;;;;;;18.88;2.20;;;8.50;99.90;;;;;;5060305;28;20485;-85
2023/12/29 11:18:15;;;;;;;21.35;1.92;;;8.40;99.90;;;;;;5044093;28;20132;-85
2023/12/29 11:20:42;;;;;;;17.13;2.10;;;8.40;99.90;;;;;;5048627;28;20056;-85
2023/12/29 11:23:14;;;;;;;18.77;2.53;;;8.30;99.90;;;;;;5035447;28;20052;-85
2023/12/29 11:25:40;;;;;;;15.45;1.52;;;8.30;99.90;;;;;;5069650;28;20057;-83
2023/12/29 11:28:13;;;;;;;23.33;3.83;;;8.40;99.90;;;;;;5054742;28;20058;-85
2023/12/29 11:30:42;;;;;;;23.95;3.15;;;8.40;99.90;;;;;;5074647;28;20924;-86
2023/12/29 11:33:20;;;;;;;22.10;2.03;;;8.40;99.90;;;;;;5039312;28;20098;-84
2023/12/29 11:36:03;;;;;;;18.58;1.17;;;8.20;99.90;;;;;;5045281;28;20705;-85
2023/12/29 11:38:52;;;;;;;19.05;3.22;;;8.10;99.90;;;;;;5047194;28;20681;-85
2023/12/29 11:41:46;;;;;;;16.27;1.70;;;8.10;99.90;;;;;;5063891;28;20044;-87
2023/12/29 11:44:12;;;;;;;17.13;1.63;;;8.00;99.90;;;;;;5047075;28;20078;-86
2023/12/29 11:46:44;;;;;;;11.00;1.38;;;8.00;99.90;;;;;;5048022;28;20036;-85
2023/12/29 11:49:10;;;;;;;18.35;1.30;;;7.90;99.90;;;;;;5063994;28;20093;-82
2023/12/29 11:51:43;;;;;;;12.02;1.17;;;7.90;99.90;;;;;;5045664;28;20482;-84
2023/12/29 11:54:09;;;;;;;;;;;7.90;99.90;;;;;;5045299;28;20040;-83
2023/12/29 11:56:43;;;;;;;13.48;2.03;;;7.90;99.90;;;;;;5048645;28;19920;-85
2023/12/29 11:59:21;;;;;;;14.60;1.40;;;8.10;99.90;;;;;;5048776;28;20071;-86
2023/12/29 12:01:52;;;;;;;13.85;1.65;;;8.20;99.90;;;;;;5059278;28;20114;-84
2023/12/29 12:04:44;;;;;;;13.57;1.92;;;8.20;99.90;;;;;;5065947;28;20044;-84
2023/12/29 12:07:15;;;;;;;17.77;2.60;;;8.30;99.90;;;;;;5065606;28;20051;-83
2023/12/29 12:28:36;;;;;;;9.30;1.20;;;8.60;99.90;;;;;;5083652;22;20757;-83
2023/12/29 12:31:06;;;;;;;14.02;0.90;;;7.80;99.90;;;;;;4987409;28;20046;-85
2023/12/29 12:33:32;;;;;;;14.00;2.03;;;7.80;99.90;;;;;;4972115;28;20096;-84
2023/12/29 12:36:02;;;;;;;13.80;1.50;;;7.80;99.90;;;;;;4971041;28;20498;-82
2023/12/29 12:38:30;;;;;;;14.63;1.48;;;7.80;99.90;;;;;;4988751;28;20916;-84
2023/12/29 12:40:57;;;;;;;13.18;1.48;;;7.80;99.90;;;;;;4972512;28;20513;-85
2023/12/29 12:43:25;;;;;;;15.25;1.90;;;8.20;99.90;;;;;;4988340;28;20454;-83
2023/12/29 12:46:00;;;;;;;10.85;1.45;;;7.80;99.90;;;;;;4972443;28;20587;-82
2023/12/29 12:48:46;;;;;;;11.40;1.00;;;7.90;99.90;;;;;;4972185;28;20648;-82
2023/12/29 12:51:13;;;;;;;16.08;1.95;;;8.00;99.90;;;;;;4969690;28;20769;-84
2023/12/29 12:53:44;;;;;;;11.60;1.83;;;8.00;99.90;;;;;;4970620;28;20053;-84
2023/12/29 12:56:10;;;;;;;24.38;2.78;;;6.20;99.90;;;;;;4971391;28;20045;-84
2023/12/29 12:58:56;;;;;;;11.52;1.60;;;8.10;99.90;;;;;;4972136;28;20057;-85
2023/12/29 13:01:23;;;;;;;13.27;1.90;;;8.30;99.90;;;;;;4931708;28;20050;-83
2023/12/29 13:03:49;;;;;;;12.68;1.65;;;8.30;99.90;;;;;;4948161;28;20444;-82
2023/12/29 13:06:16;;;;;;;10.02;0.95;;;8.30;99.90;;;;;;4947308;28;20055;-84
2023/12/29 13:08:43;;;;;;;14.18;1.30;;;8.40;99.90;;;;;;4932101;28;20086;-85